Data for 07/06/2013

Time Sea-Level Adjusted Pressure Absolute Pressure Temperature Relative Humidity Dew Point Precipitation   
(mb) (inHg) (mb) (inHg) (C) (F) (%) (C) (F) (mm) (in)
00:05 1017 30.03 846 24.98 10.7 51.2 94 9.7 49.5 0 0
00:10 1017 30.03 846 24.98 10.7 51.3 94 9.8 49.6 0 0
00:15 1017 30.03 846 24.98 10.8 51.5 93 9.8 49.6 0 0
00:20 1017 30.03 846 24.98 11.1 51.9 93 9.9 49.9 0 0
00:25 1017 30.03 846 24.98 11.1 51.9 93 9.9 49.8 0 0
00:30 1017 30.03 846 24.98 11.1 52.1 92 9.9 49.8 0 0
00:35 1017 30.03 846 24.98 11.1 51.9 93 9.9 49.9 0 0
00:40 1017 30.03 846 24.98 11 51.8 92 9.8 49.6 0 0
00:45 1017 30.03 846 24.98 11 51.8 91 9.7 49.4 0 0
00:50 1017 30.03 846 24.98 11 51.8 91 9.6 49.3 0 0
00:55 1018 30.06 847 25.01 10.9 51.7 92 9.7 49.4 0 0
01:00 1018 30.06 847 25.01 10.5 50.9 95 9.7 49.4 0 0
01:05 1018 30.06 847 25.01 10.4 50.7 95 9.6 49.2 0 0
01:10 1017 30.03 847 25.01 10.4 50.7 95 9.6 49.3 0 0
01:15 1017 30.03 847 25.01 10.4 50.7 96 9.8 49.7 0 0
01:20 1017 30.03 846 24.98 10.8 51.4 96 10.1 50.3 0 0
01:25 1017 30.03 846 24.98 11.4 52.5 93 10.4 50.7 0 0
01:30 1017 30.03 846 24.98 11.9 53.3 91 10.5 50.9 0 0
01:35 1016 30 846 24.98 12.1 53.7 91 10.6 51.1 0 0
01:40 1017 30.03 846 24.98 12.1 53.9 90 10.5 51 0 0
01:45 1017 30.03 846 24.98 12.1 53.8 88 10.3 50.5 0 0
01:50 1017 30.03 846 24.98 12.2 53.9 88 10.2 50.3 0 0
01:55 1017 30.03 846 24.98 12.1 53.7 88 10.1 50.2 0 0
02:00 1017 30.03 846 24.98 12 53.6 89 10.2 50.4 0 0
02:05 1017 30.03 846 24.98 11.5 52.7 90 9.9 49.8 0 0
02:10 1017 30.03 846 24.98 11.2 52.1 90 9.7 49.4 0 0
02:15 1017 30.03 846 24.98 10.9 51.7 91 9.5 49.1 0 0
02:20 1017 30.03 846 24.98 10.7 51.3 93 9.6 49.2 0 0
02:25 1017 30.03 847 25.01 10.5 50.9 92 9.2 48.5 0 0
02:30 1017 30.03 847 25.01 10 50.1 93 9 48.1 0 0
02:35 1018 30.06 847 25.01 9.8 49.7 95 9 48.2 0 0
02:40 1017 30.03 847 25.01 9.7 49.4 95 9 48.2 0 0
02:45 1017 30.03 847 25.01 9.9 49.9 94 9 48.3 0 0
02:50 1017 30.03 847 25.01 10.2 50.4 93 9.2 48.6 0 0
02:55 1017 30.03 847 25.01 10.6 51 94 9.6 49.3 0 0
03:00 1017 30.03 847 25.01 11.3 52.3 89 9.5 49.1 0 0
03:05 1017 30.03 847 25.01 11.6 52.8 88 9.6 49.3 0 0
03:10 1018 30.06 847 25.01 11.5 52.8 89 9.8 49.7 0 0
03:15 1017 30.03 847 25.01 11.3 52.3 90 9.8 49.6 0 0
03:20 1018 30.06 847 25.01 11.5 52.7 88 9.7 49.4 0 0
03:25 1017 30.03 847 25.01 11.5 52.7 88 9.7 49.4 0 0
03:30 1018 30.06 847 25.01 11.2 52.2 89 9.5 49.1 0 0
03:35 1018 30.06 847 25.01 11 51.8 90 9.4 48.9 0 0
03:40 1018 30.06 847 25.01 10.8 51.4 90 9.3 48.7 0 0
03:45 1018 30.06 847 25.01 10.5 50.9 91 9.2 48.5 0 0
03:50 1018 30.06 847 25.01 10.3 50.6 92 9.1 48.4 0 0
03:55 1018 30.06 847 25.01 10.3 50.5 92 9.1 48.4 0 0
04:00 1018 30.06 847 25.01 10.2 50.4 93 9.1 48.5 0 0
04:05 1018 30.06 847 25.01 10.3 50.6 92 9.1 48.4 0 0
04:10 1018 30.06 847 25.01 10.2 50.3 93 9 48.3 0 0
04:15 1018 30.06 847 25.01 10 49.9 93 8.9 48 0 0
04:20 1018 30.06 847 25.01 9.9 49.8 92 8.7 47.6 0 0
04:25 1018 30.06 847 25.01 10 49.9 92 8.7 47.6 0 0
04:30 1018 30.06 847 25.01 9.9 49.8 93 8.8 47.8 0 0
04:35 1018 30.06 847 25.01 10.1 50.1 92 8.8 47.8 0 0
04:40 1018 30.06 847 25.01 10 50 92 8.8 47.8 0 0
04:45 1018 30.06 847 25.01 9.9 49.9 91 8.6 47.4 0 0
04:50 1018 30.06 847 25.01 9.5 49.1 92 8.3 47 0 0
04:55 1018 30.06 847 25.01 9.2 48.5 94 8.2 46.8 0 0
05:00 1018 30.06 847 25.01 9 48.1 94 8.1 46.5 0 0
05:05 1018 30.06 847 25.01 8.9 47.9 94 7.9 46.3 0 0
05:10 1018 30.06 847 25.01 8.7 47.6 94 7.7 45.9 0 0
05:15 1018 30.06 847 25.01 8.4 47.2 94 7.5 45.6 0 0
05:20 1018 30.06 848 25.04 8.3 47 95 7.6 45.6 .2 0.008
05:25 1018 30.06 848 25.04 8.5 47.2 94 7.6 45.7 0 0
05:30 1018 30.06 848 25.04 8.7 47.7 93 7.6 45.6 0 0
05:35 1018 30.06 848 25.04 8.6 47.5 93 7.5 45.4 0 0
05:40 1018 30.06 848 25.04 8.2 46.8 95 7.4 45.4 0 0
05:45 1019 30.09 848 25.04 8.3 47 95 7.6 45.7 0 0
05:50 1019 30.09 848 25.04 8.5 47.3 94 7.6 45.7 0 0
05:55 1019 30.09 848 25.04 8.4 47.2 94 7.5 45.4 0 0
06:00 1019 30.09 848 25.04 8.3 46.9 95 7.5 45.4 0 0
06:05 1019 30.09 848 25.04 8.4 47 95 7.5 45.6 0 0
06:10 1019 30.09 848 25.04 8.5 47.2 94 7.6 45.6 0 0
06:15 1019 30.09 848 25.04 8.5 47.2 95 7.7 45.8 0 0
06:20 1019 30.09 848 25.04 8.9 47.9 94 7.9 46.3 0 0
06:25 1019 30.09 848 25.04 9 48.2 94 8 46.4 0 0
06:30 1019 30.09 848 25.04 9.2 48.5 94 8.2 46.8 0 0
06:35 1019 30.09 848 25.04 9.6 49.2 93 8.5 47.2 0 0
06:40 1019 30.09 848 25.04 10 50 92 8.8 47.8 0 0
06:45 1019 30.09 848 25.04 10.6 51.1 92 9.3 48.7 0 0
06:50 1019 30.09 848 25.04 11.5 52.7 85 9.1 48.5 0 0
06:55 1019 30.09 848 25.04 11.9 53.4 86 9.6 49.4 0 0
07:00 1019 30.09 848 25.04 12.1 53.7 86 9.9 49.7 0 0
07:05 1019 30.09 848 25.04 12.2 54 85 9.9 49.7 0 0
07:10 1019 30.09 848 25.04 12.4 54.3 86 10.1 50.3 0 0
07:15 1019 30.09 848 25.04 12.6 54.8 86 10.4 50.8 0 0
07:20 1019 30.09 848 25.04 13 55.4 84 10.3 50.6 0 0
07:25 1019 30.09 848 25.04 13.4 56.1 83 10.6 51.1 0 0
07:30 1019 30.09 848 25.04 13.9 56.9 80 10.6 51 0 0
07:35 1019 30.09 848 25.04 14.2 57.5 83 11.3 52.4 0 0
07:40 1019 30.09 848 25.04 14.3 57.8 80 10.9 51.7 0 0
07:45 1019 30.09 848 25.04 15.1 59.2 73 10.4 50.7 0 0
07:50 1019 30.09 848 25.04 15.7 60.3 73 10.9 51.7 0 0
07:55 1019 30.09 849 25.07 16 60.8 72 11.1 52 0 0
08:00 1019 30.09 849 25.07 16.1 61.1 70 10.7 51.3 0 0
08:05 1019 30.09 849 25.07 16.1 61.1 73 11.3 52.4 0 0
08:10 1019 30.09 849 25.07 15.9 60.7 73 11.1 52 0 0
08:15 1019 30.09 849 25.07 16.2 61.2 73 11.4 52.5 0 0
08:20 1019 30.09 849 25.07 16.5 61.8 71 11.2 52.2 0 0
08:25 1019 30.09 849 25.07 16.1 61 74 11.6 52.9 0 0
08:30 1019 30.09 849 25.07 16 60.9 72 11 51.8 0 0
08:35 1019 30.09 849 25.07 15.9 60.6 71 10.7 51.2 0 0
08:40 1020 30.12 849 25.07 16 60.7 74 11.3 52.4 0 0
08:45 1020 30.12 849 25.07 16.1 60.9 72 11.1 51.9 0 0
08:50 1020 30.12 849 25.07 16 60.8 68 10.2 50.4 0 0
08:55 1020 30.12 849 25.07 16.1 61 68 10.3 50.6 0 0
09:00 1020 30.12 849 25.07 16.2 61.1 70 10.7 51.2 0 0
09:05 1020 30.12 849 25.07 16.1 61 67 10.1 50.1 0 0
09:10 1020 30.12 849 25.07 16.3 61.3 67 10.3 50.5 0 0
09:15 1020 30.12 849 25.07 16.4 61.5 65 9.9 49.8 0 0
09:20 1020 30.12 849 25.07 16.4 61.6 69 10.7 51.3 0 0
09:25 1020 30.12 849 25.07 16.6 61.9 68 10.8 51.4 0 0
09:30 1020 30.12 849 25.07 16.7 62 65 10.2 50.4 0 0
09:35 1020 30.12 849 25.07 16.7 62.1 68 10.9 51.7 0 0
09:40 1020 30.12 849 25.07 17 62.5 65 10.4 50.8 0 0
09:45 1020 30.12 849 25.07 17.2 63 65 10.6 51 0 0
09:50 1020 30.12 849 25.07 17.2 63 59 9.2 48.5 0 0
09:55 1020 30.12 849 25.07 17.3 63.1 58 9 48.1 0 0
10:00 1020 30.12 849 25.07 17.4 63.3 57 8.8 47.8 0 0
10:05 1020 30.12 849 25.07 17.7 63.8 57 9.2 48.5 0 0
10:10 1020 30.12 849 25.07 17.7 63.8 66 11.4 52.5 0 0
10:15 1020 30.12 849 25.07 18 64.3 65 11.3 52.4 0 0
10:20 1020 30.12 849 25.07 18.1 64.6 58 9.9 49.8 0 0
10:25 1020 30.12 849 25.07 18.3 64.9 60 10.4 50.7 0 0
10:30 1020 30.12 849 25.07 18.2 64.8 59 10.2 50.4 0 0
10:35 1020 30.12 849 25.07 18.4 65 56 9.6 49.4 0 0
10:40 1020 30.12 849 25.07 18.7 65.6 58 10.4 50.7 0 0
10:45 1020 30.12 849 25.07 18.6 65.4 58 10.1 50.2 0 0
10:50 1020 30.12 849 25.07 18.5 65.2 59 10.4 50.7 0 0
10:55 1020 30.12 849 25.07 18.7 65.7 58 10.3 50.6 0 0
11:00 1020 30.12 849 25.07 18.8 65.9 59 10.7 51.3 0 0
11:05 1020 30.12 849 25.07 19.2 66.5 56 10.3 50.6 0 0
11:10 1019 30.09 849 25.07 19 66.2 52 8.9 48.1 0 0
11:15 1019 30.09 849 25.07 19.3 66.8 54 9.9 49.9 0 0
11:20 1019 30.09 849 25.07 19.6 67.2 53 9.7 49.5 0 0
11:25 1019 30.09 849 25.07 19.5 67.1 55 10.4 50.8 0 0
11:30 1019 30.09 849 25.07 19.6 67.2 43 6.6 44 0 0
11:35 1019 30.09 849 25.07 19.7 67.4 48 8.4 47.1 0 0
11:40 1019 30.09 848 25.04 20 68.1 51 9.8 49.7 0 0
11:45 1019 30.09 848 25.04 20.1 68.1 56 11.2 52.1 0 0
11:50 1019 30.09 848 25.04 20.3 68.5 46 8.6 47.5 0 0
11:55 1019 30.09 848 25.04 20.1 68.2 56 11.1 52 0 0
12:00 1019 30.09 848 25.04 20.2 68.4 50 9.5 49.1 0 0
12:05 1019 30.09 848 25.04 20.6 69.1 52 10.7 51.2 0 0
12:10 1019 30.09 848 25.04 20.9 69.6 53 11.1 52 0 0
12:15 1019 30.09 848 25.04 20.7 69.2 50 10.2 50.3 0 0
12:20 1019 30.09 848 25.04 20.7 69.3 48 9.4 48.9 0 0
12:25 1019 30.09 848 25.04 20.9 69.7 47 9.4 48.9 0 0
12:30 1019 30.09 848 25.04 21.1 69.9 45 8.8 47.8 0 0
12:35 1019 30.09 848 25.04 21.3 70.3 54 11.6 52.9 0 0
12:40 1019 30.09 848 25.04 21.6 70.8 45 9.4 48.9 0 0
12:45 1019 30.09 848 25.04 21.7 71.1 44 9 48.2 0 0
12:50 1019 30.09 848 25.04 21.5 70.7 48 10.3 50.5 0 0
12:55 1019 30.09 848 25.04 21.5 70.7 50 10.9 51.7 0 0
13:00 1019 30.09 848 25.04 21.7 71.1 49 10.7 51.3 0 0
13:05 1019 30.09 848 25.04 21.7 71.1 47 10.2 50.3 0 0
13:10 1019 30.09 848 25.04 22.1 71.8 50 11.3 52.4 0 0
13:15 1019 30.09 848 25.04 22.4 72.3 45 10.2 50.3 0 0
13:20 1019 30.09 848 25.04 22.1 71.8 44 9.4 49 0 0
13:25 1019 30.09 848 25.04 22.1 71.7 52 11.9 53.5 0 0
13:30 1018 30.06 848 25.04 22.4 72.3 48 11 51.7 0 0
13:35 1018 30.06 848 25.04 22.9 73.2 43 9.8 49.7 0 0
13:40 1018 30.06 848 25.04 22.8 73.1 44 9.9 49.9 0 0
13:45 1018 30.06 847 25.01 22.6 72.7 48 11.3 52.4 0 0
13:50 1018 30.06 847 25.01 22.8 73.1 45 10.6 51 0 0
13:55 1018 30.06 847 25.01 23.2 73.8 38 8.3 46.9 0 0
14:00 1018 30.06 847 25.01 23.1 73.6 41 9.4 48.9 0 0
14:05 1018 30.06 847 25.01 23.1 73.5 41 9.4 48.8 0 0
14:10 1018 30.06 847 25.01 23.2 73.8 39 8.8 47.8 0 0
14:15 1018 30.06 847 25.01 23.1 73.6 40 8.9 48 0 0
14:20 1018 30.06 847 25.01 23.5 74.4 42 10.1 50.2 0 0
14:25 1018 30.06 847 25.01 23.7 74.7 39 9 48.2 0 0
14:30 1018 30.06 847 25.01 23.5 74.3 39 9 48.3 0 0
14:35 1018 30.06 847 25.01 23.6 74.4 35 7.6 45.6 0 0
14:40 1018 30.06 847 25.01 23.6 74.5 38 8.8 47.9 0 0
14:45 1018 30.06 847 25.01 23.8 74.8 42 10.2 50.4 0 0
14:50 1017 30.03 847 25.01 24.1 75.3 37 8.8 47.9 0 0
14:55 1017 30.03 847 25.01 24.6 76.2 48 12.9 55.2 0 0
15:00 1017 30.03 846 24.98 24.3 75.7 43 11 51.9 0 0
15:05 1017 30.03 846 24.98 24.2 75.5 41 10.2 50.4 0 0
15:10 1017 30.03 846 24.98 24.3 75.8 36 8.6 47.5 0 0
15:15 1017 30.03 846 24.98 24.3 75.8 41 10.5 50.9 0 0
15:20 1017 30.03 846 24.98 24.5 76.1 41 10.5 50.9 0 0
15:25 1017 30.03 846 24.98 24.5 76 40 10.3 50.6 0 0
15:30 1017 30.03 846 24.98 24.9 76.9 38 10.1 50.1 0 0
15:35 1017 30.03 846 24.98 25.4 77.6 38 10.1 50.2 0 0
15:40 1017 30.03 846 24.98 25.1 77.2 42 11.6 52.8 0 0
15:45 1017 30.03 846 24.98 25.2 77.3 37 9.7 49.5 0 0
15:50 1016 30 846 24.98 25 76.9 40 10.5 50.9 0 0
15:55 1016 30 846 24.98 25 76.9 33 8 46.4 0 0
16:00 1016 30 846 24.98 25.1 77.2 40 10.7 51.2 0 0
16:05 1016 30 846 24.98 25.3 77.5 33 8.2 46.8 0 0
16:10 1016 30 846 24.98 24.7 76.4 34 8.1 46.6 0 0
16:15 1016 30 845 24.95 24.5 76.1 41 10.7 51.2 0 0
16:20 1016 30 845 24.95 24.6 76.4 39 10.1 50.2 0 0
16:25 1016 30 845 24.95 24.7 76.5 34 8 46.5 0 0
16:30 1016 30 845 24.95 24.8 76.7 40 10.7 51.2 0 0
16:35 1016 30 845 24.95 24.7 76.5 37 9.3 48.7 0 0
16:40 1016 30 845 24.95 24.7 76.5 41 10.8 51.4 0 0
16:45 1016 30 845 24.95 24.5 76.1 39 9.9 49.9 0 0
16:50 1016 30 845 24.95 24.6 76.3 31 6.8 44.3 0 0
16:55 1016 30 845 24.95 24.5 76.1 42 11 51.7 0 0
17:00 1016 30 845 24.95 24.4 76 39 9.8 49.6 0 0
17:05 1016 30 845 24.95 24.1 75.3 44 11.2 52.1 0 0
17:10 1016 30 845 24.95 23.7 74.6 45 11.3 52.3 0 0
17:15 1016 30 845 24.95 23.3 74 46 11.1 52 0 0
17:20 1016 30 845 24.95 23.1 73.6 50 12.2 54 0 0
17:25 1016 30 845 24.95 22.8 73.1 51 12.3 54.1 0 0
17:30 1016 30 845 24.95 22.1 71.7 61 14.3 57.7 0 0
17:35 1016 30 845 24.95 21.7 71 40 7.8 46 0 0
17:40 1016 30 845 24.95 22 71.6 32 4.9 40.9 0 0
17:45 1016 30 845 24.95 22.2 71.9 48 10.8 51.5 0 0
17:50 1016 30 845 24.95 21.2 70.1 50 10.4 50.7 0 0
17:55 1016 30 845 24.95 21 69.9 52 10.8 51.5 0 0
18:00 1016 30 845 24.95 20.3 68.5 58 11.9 53.4 0 0
18:05 1016 30 846 24.98 19.9 67.9 62 12.6 54.7 0 0
18:10 1016 30 846 24.98 19.9 67.9 57 11.4 52.5 0 0
18:15 1016 30 846 24.98 20.3 68.5 54 10.8 51.4 0 0
18:20 1016 30 846 24.98 20.2 68.3 60 12.3 54.1 0 0
18:25 1016 30 845 24.95 19.6 67.3 63 12.4 54.3 0 0
18:30 1016 30 845 24.95 19.2 66.6 65 12.5 54.4 0 0
18:35 1016 30 845 24.95 19 66.2 61 11.4 52.6 0 0
18:40 1016 30 845 24.95 19.4 66.8 58 11 51.8 0 0
18:45 1016 30 845 24.95 20 68 54 10.6 51 0 0
18:50 1016 30 845 24.95 20.1 68.2 56 11.3 52.3 0 0
18:55 1016 30 845 24.95 20 67.9 56 11.2 52.1 0 0
19:00 1016 30 845 24.95 20 68 58 11.7 53.1 0 0
19:05 1016 30 845 24.95 20 68 58 11.7 53.1 0 0
19:10 1016 30 845 24.95 20 68 56 10.9 51.7 0 0
19:15 1016 30 845 24.95 19.3 66.7 57 10.7 51.3 0 0
19:20 1016 30 846 24.98 18.9 66 59 10.9 51.5 0 0
19:25 1016 30 846 24.98 18.4 65.1 62 11 51.8 0 0
19:30 1017 30.03 846 24.98 18.3 64.9 59 10.3 50.6 0 0
19:35 1017 30.03 846 24.98 18 64.4 63 10.9 51.6 0 0
19:40 1016 30 846 24.98 17.5 63.5 64 10.6 51.1 0 0
19:45 1016 30 845 24.95 17.2 63 65 10.8 51.4 0 0
19:50 1016 30 846 24.98 17.5 63.5 62 10.3 50.5 0 0
19:55 1016 30 846 24.98 18 64.4 61 10.5 50.9 0 0
20:00 1016 30 846 24.98 18.3 64.9 58 10 50 0 0
20:05 1016 30 845 24.95 18.1 64.6 62 10.7 51.3 0 0
20:10 1016 30 845 24.95 17.6 63.7 60 9.9 49.8 0 0
20:15 1016 30 845 24.95 17.7 63.8 61 10.2 50.3 0 0
20:20 1016 30 846 24.98 17.4 63.4 61 10 50 0 0
20:25 1016 30 845 24.95 17.4 63.3 59 9.5 49.1 0 0
20:30 1016 30 845 24.95 17.8 64.1 56 9.1 48.4 0 0
20:35 1016 30 845 24.95 17.9 64.2 58 9.5 49.1 0 0
20:40 1016 30 845 24.95 17.8 64.1 59 9.8 49.6 0 0
20:45 1016 30 845 24.95 17.9 64.2 56 9.2 48.6 0 0
20:50 1016 30 845 24.95 18.3 64.9 52 8.2 46.8 0 0
20:55 1016 30 845 24.95 18.7 65.6 50 8.2 46.8 0 0
21:00 1016 30 846 24.98 18.5 65.4 52 8.7 47.6 0 0
21:05 1016 30 846 24.98 18.3 64.9 52 8.5 47.3 0 0
21:10 1017 30.03 846 24.98 18.2 64.8 53 8.7 47.6 0 0
21:15 1017 30.03 846 24.98 18 64.4 51 7.8 46.1 0 0
21:20 1017 30.03 846 24.98 18 64.4 53 8.5 47.2 0 0
21:25 1017 30.03 846 24.98 17.7 63.9 53 8.2 46.7 0 0
21:30 1017 30.03 846 24.98 17.4 63.3 56 8.7 47.7 0 0
21:35 1017 30.03 846 24.98 17.2 63 54 7.9 46.2 0 0
21:40 1017 30.03 846 24.98 17.5 63.5 55 8.4 47.1 0 0
21:45 1017 30.03 846 24.98 17.5 63.5 57 9 48.1 0 0
21:50 1017 30.03 846 24.98 17.2 63 60 9.4 48.9 0 0
21:55 1017 30.03 846 24.98 17 62.5 59 9 48.2 0 0
22:00 1017 30.03 846 24.98 16.8 62.3 59 8.8 47.9 0 0
22:05 1017 30.03 846 24.98 16.8 62.2 58 8.6 47.5 0 0
22:10 1017 30.03 847 25.01 16.8 62.3 58 8.7 47.6 0 0
22:15 1017 30.03 847 25.01 16.7 62.1 60 9 48.3 0 0
22:20 1017 30.03 847 25.01 16.6 61.9 61 9.2 48.5 0 0
22:25 1018 30.06 847 25.01 16.4 61.5 63 9.3 48.7 0 0
22:30 1018 30.06 847 25.01 16.3 61.4 64 9.6 49.3 0 0
22:35 1018 30.06 847 25.01 16.4 61.5 65 9.9 49.8 0 0
22:40 1018 30.06 847 25.01 16.3 61.4 66 10.1 50.3 0 0
22:45 1018 30.06 847 25.01 16.3 61.3 67 10.2 50.4 0 0
22:50 1018 30.06 847 25.01 16.1 61 68 10.3 50.6 0 0
22:55 1018 30.06 847 25.01 16 60.9 69 10.5 50.9 0 0
23:00 1018 30.06 847 25.01 15.9 60.7 69 10.4 50.6 0 0
23:05 1018 30.06 847 25.01 16 60.8 69 10.4 50.8 0 0
23:10 1018 30.06 847 25.01 15.9 60.6 70 10.5 50.9 0 0
23:15 1018 30.06 847 25.01 16 60.7 70 10.5 50.8 0 0
23:20 1018 30.06 847 25.01 15.9 60.7 69 10.4 50.8 0 0
23:25 1018 30.06 847 25.01 16 60.9 69 10.5 50.9 0 0
23:30 1018 30.06 847 25.01 15.9 60.7 71 10.8 51.4 0 0
23:35 1018 30.06 848 25.04 15.8 60.5 71 10.6 51 0 0
23:40 1018 30.06 848 25.04 15.8 60.5 70 10.5 50.8 0 0
23:45 1018 30.06 848 25.04 15.9 60.7 70 10.5 50.9 0 0
23:50 1018 30.06 848 25.04 16 60.8 71 10.8 51.4 0 0
23:55 1018 30.06 848 25.04 15.8 60.5 72 10.9 51.6 0 0
24:00 1018 30.06 848 25.04 15.8 60.4 72 10.8 51.4 0 0